Time;durP1;ratioP1;P1;durP2;ratioP2;P2;SDS_P1;SDS_P2;PMS_P1;PMS_P2;Temp;Humidity;BMP_temperature;BMP_pressure;BME280_temperature;BME280_humidity;BME280_pressure;Samples;Min_cycle;Max_cycle;Signal;HPM_P1;HPM_P2
2021/01/19 00:02:14;;;;;;;5.60;4.13;;;2.30;99.90;;;;;;5070068;28;20567;-72
2021/01/19 00:04:40;;;;;;;6.53;3.50;;;2.30;99.90;;;;;;5070953;28;20466;-72
2021/01/19 00:07:06;;;;;;;6.30;3.23;;;2.20;99.90;;;;;;5069979;28;20525;-71
2021/01/19 00:09:33;;;;;;;4.50;2.90;;;2.20;99.90;;;;;;5070253;28;20824;-72
2021/01/19 00:11:59;;;;;;;4.63;3.00;;;2.10;99.90;;;;;;5070054;28;20552;-71
2021/01/19 00:14:26;;;;;;;4.77;3.10;;;2.20;99.90;;;;;;5070266;28;20567;-72
2021/01/19 00:16:52;;;;;;;10.23;3.00;;;2.20;99.90;;;;;;5069663;28;20611;-72
2021/01/19 00:19:19;;;;;;;8.10;3.10;;;2.20;99.90;;;;;;5070275;28;20493;-71
2021/01/19 00:21:46;;;;;;;5.63;3.30;;;2.20;99.90;;;;;;5080932;28;20573;-71
2021/01/19 00:24:12;;;;;;;5.10;3.93;;;2.20;99.90;;;;;;5090263;28;20528;-71
2021/01/19 00:26:40;;;;;;;6.40;3.10;;;2.20;99.90;;;;;;5090035;28;20933;-71
2021/01/19 00:29:07;;;;;;;4.50;3.37;;;2.10;99.90;;;;;;5084349;28;20569;-71
2021/01/19 00:31:33;;;;;;;5.50;3.10;;;2.10;99.90;;;;;;5090278;28;20462;-72
2021/01/19 00:33:59;;;;;;;4.17;3.00;;;2.00;99.90;;;;;;5090189;28;20457;-71
2021/01/19 00:36:26;;;;;;;4.00;3.37;;;1.90;99.90;;;;;;5089926;28;20446;-72
2021/01/19 00:38:53;;;;;;;5.80;3.47;;;1.90;99.90;;;;;;5089934;28;20454;-72
2021/01/19 00:41:19;;;;;;;3.10;2.53;;;1.80;99.90;;;;;;5080000;28;20514;-71
2021/01/19 00:43:46;;;;;;;5.20;2.70;;;1.80;99.90;;;;;;5071112;28;20519;-71
2021/01/19 00:46:12;;;;;;;3.40;2.60;;;1.70;99.90;;;;;;5071104;28;20443;-71
2021/01/19 00:48:38;;;;;;;6.47;3.57;;;1.70;99.90;;;;;;5071161;28;20453;-71
2021/01/19 00:51:05;;;;;;;5.03;3.60;;;1.60;99.90;;;;;;5070306;28;20475;-71
2021/01/19 00:53:32;;;;;;;4.13;3.10;;;1.70;99.90;;;;;;5070966;28;20867;-71
2021/01/19 00:55:58;;;;;;;5.13;3.50;;;1.60;99.90;;;;;;5070227;28;20450;-71
2021/01/19 00:58:25;;;;;;;4.80;2.93;;;1.60;99.90;;;;;;5069584;28;20446;-71
2021/01/19 01:00:51;;;;;;;5.07;3.57;;;1.60;99.90;;;;;;5070380;28;20483;-71
2021/01/19 01:03:17;;;;;;;4.53;3.57;;;1.60;99.90;;;;;;5070818;28;20590;-71
2021/01/19 01:05:44;;;;;;;6.80;3.87;;;1.60;99.90;;;;;;5070668;28;20538;-71
2021/01/19 01:08:10;;;;;;;4.80;2.87;;;1.50;99.90;;;;;;5070526;28;20580;-71
2021/01/19 01:10:37;;;;;;;7.00;3.40;;;1.40;99.90;;;;;;5069971;28;20597;-71
2021/01/19 01:13:04;;;;;;;5.63;3.23;;;1.50;99.90;;;;;;5070811;28;20455;-71
2021/01/19 01:15:32;;;;;;;4.60;3.30;;;1.50;99.90;;;;;;5070291;28;20671;-71
2021/01/19 01:17:58;;;;;;;3.27;2.87;;;1.40;99.90;;;;;;5070626;28;20537;-71
2021/01/19 01:20:25;;;;;;;8.83;3.67;;;1.30;99.90;;;;;;5069980;28;20443;-71
2021/01/19 01:22:52;;;;;;;3.70;3.20;;;1.30;99.90;;;;;;5070416;28;20490;-71
2021/01/19 01:25:18;;;;;;;7.00;2.83;;;1.30;99.90;;;;;;5070146;28;20533;-71
2021/01/19 01:27:47;;;;;;;5.93;3.83;;;1.30;99.90;;;;;;5070593;28;20541;-71
2021/01/19 01:30:15;;;;;;;4.03;3.63;;;1.30;99.90;;;;;;5069876;28;20515;-71
2021/01/19 01:32:43;;;;;;;4.83;3.20;;;1.30;99.90;;;;;;5070412;28;20551;-71
2021/01/19 01:35:11;;;;;;;4.47;2.97;;;1.30;99.90;;;;;;5070169;28;20525;-71
2021/01/19 01:37:44;;;;;;;5.13;2.93;;;1.30;99.90;;;;;;5070289;28;20447;-71
2021/01/19 01:40:13;;;;;;;5.00;3.33;;;1.30;99.90;;;;;;5069586;28;20530;-71
2021/01/19 01:42:39;;;;;;;4.73;3.13;;;1.30;99.90;;;;;;5070122;28;20562;-71
2021/01/19 01:45:08;;;;;;;4.53;3.37;;;1.40;99.90;;;;;;5070115;28;20467;-71
2021/01/19 01:47:34;;;;;;;3.70;2.87;;;1.40;99.90;;;;;;5070136;28;20820;-71
2021/01/19 01:50:02;;;;;;;5.20;3.57;;;1.40;99.90;;;;;;5069503;28;20514;-71
2021/01/19 01:52:29;;;;;;;3.90;2.83;;;1.50;99.90;;;;;;5069765;28;20463;-71
2021/01/19 01:54:56;;;;;;;4.90;3.40;;;1.50;99.90;;;;;;5069957;28;20462;-71
2021/01/19 01:57:23;;;;;;;5.03;3.37;;;1.50;99.90;;;;;;5070113;28;20451;-71
2021/01/19 01:59:50;;;;;;;3.60;2.57;;;1.60;99.90;;;;;;5069198;28;20447;-71
2021/01/19 02:02:17;;;;;;;4.00;3.07;;;1.50;99.90;;;;;;5070893;28;21023;-71
2021/01/19 02:04:43;;;;;;;5.83;3.33;;;1.50;99.90;;;;;;5073020;28;20492;-71
2021/01/19 02:07:21;;;;;;;4.27;3.13;;;1.50;99.90;;;;;;5073328;28;20534;-71
2021/01/19 02:10:07;;;;;;;5.53;3.70;;;1.50;99.90;;;;;;5069408;28;20534;-71
2021/01/19 02:12:42;;;;;;;4.57;3.00;;;1.50;99.90;;;;;;5069863;28;20519;-70
2021/01/19 02:15:09;;;;;;;3.90;3.20;;;1.40;99.90;;;;;;5069387;28;20525;-71
2021/01/19 02:17:47;;;;;;;4.47;3.43;;;1.40;99.90;;;;;;5069836;28;20604;-71
2021/01/19 02:20:41;;;;;;;5.70;3.27;;;1.30;99.90;;;;;;5068544;28;20530;-71
2021/01/19 02:23:36;;;;;;;5.07;3.17;;;1.20;99.90;;;;;;5069312;28;20550;-71
2021/01/19 02:26:47;;;;;;;4.40;3.30;;;1.10;99.90;;;;;;5066696;28;20551;-71
2021/01/19 02:29:30;;;;;;;6.67;3.77;;;1.10;99.90;;;;;;5053351;28;20447;-71
2021/01/19 02:32:10;;;;;;;3.67;2.97;;;1.10;99.90;;;;;;5069308;28;20547;-71
2021/01/19 02:34:46;;;;;;;5.60;2.83;;;1.20;99.90;;;;;;5069346;28;20445;-71
2021/01/19 02:37:19;;;;;;;5.00;2.40;;;1.30;99.90;;;;;;5069468;28;20461;-71
2021/01/19 02:39:50;;;;;;;4.03;2.80;;;1.30;99.90;;;;;;5068828;28;20435;-71
2021/01/19 02:42:21;;;;;;;6.43;3.60;;;1.30;99.90;;;;;;5069190;28;20486;-71
2021/01/19 02:44:50;;;;;;;6.03;2.93;;;1.40;99.90;;;;;;5068768;28;20450;-71
2021/01/19 02:47:17;;;;;;;3.70;2.73;;;1.30;99.90;;;;;;5068262;28;20895;-71
2021/01/19 02:49:44;;;;;;;6.30;2.80;;;1.30;99.90;;;;;;5068880;28;20435;-71
2021/01/19 02:52:12;;;;;;;4.20;3.00;;;1.40;99.90;;;;;;5069280;28;20872;-71
2021/01/19 02:54:40;;;;;;;4.17;3.23;;;1.30;99.90;;;;;;5069242;28;20932;-71
2021/01/19 02:57:25;;;;;;;2.97;2.33;;;1.20;99.90;;;;;;5069065;28;20450;-71
2021/01/19 03:00:06;;;;;;;5.20;3.07;;;1.30;99.90;;;;;;5068651;28;20447;-71
2021/01/19 03:02:36;;;;;;;4.10;2.53;;;1.40;99.90;;;;;;5069203;28;20491;-71
2021/01/19 03:05:05;;;;;;;5.47;2.80;;;1.40;99.90;;;;;;5069054;28;20745;-71
2021/01/19 03:07:36;;;;;;;4.33;3.00;;;1.40;99.90;;;;;;5069074;28;20530;-71
2021/01/19 03:10:04;;;;;;;3.43;2.90;;;1.40;99.90;;;;;;5068460;28;20447;-71
2021/01/19 03:12:33;;;;;;;5.57;2.83;;;1.50;99.90;;;;;;5069062;28;20467;-71
2021/01/19 03:15:00;;;;;;;5.90;3.87;;;1.50;99.90;;;;;;5069066;28;20443;-71
2021/01/19 03:17:26;;;;;;;3.50;3.13;;;1.60;99.90;;;;;;5069017;28;20491;-71
2021/01/19 03:19:54;;;;;;;6.13;3.17;;;1.70;99.90;;;;;;5068548;28;20505;-71
2021/01/19 03:22:20;;;;;;;3.67;3.10;;;1.70;99.90;;;;;;5069036;28;20487;-71
2021/01/19 03:24:46;;;;;;;4.33;3.00;;;1.80;99.90;;;;;;5068967;28;20537;-71
2021/01/19 03:27:13;;;;;;;4.33;3.20;;;1.80;99.90;;;;;;5068035;28;20447;-71
2021/01/19 03:29:39;;;;;;;7.00;3.17;;;1.80;99.90;;;;;;5067906;28;20530;-71
2021/01/19 03:32:06;;;;;;;4.27;3.03;;;1.80;99.90;;;;;;5070482;28;20458;-71
2021/01/19 03:34:33;;;;;;;5.37;3.80;;;1.80;99.90;;;;;;5072646;28;20918;-71
2021/01/19 03:37:01;;;;;;;3.60;2.63;;;1.70;99.90;;;;;;5072565;28;20443;-71
2021/01/19 03:39:27;;;;;;;4.33;3.00;;;1.70;99.90;;;;;;5072078;28;20879;-71
2021/01/19 03:41:53;;;;;;;3.10;2.10;;;1.80;99.90;;;;;;5072237;28;20483;-71
2021/01/19 03:44:20;;;;;;;6.23;2.80;;;1.80;99.90;;;;;;5072504;28;20496;-71
2021/01/19 03:46:46;;;;;;;4.00;2.43;;;1.80;99.90;;;;;;5072143;28;20889;-71
2021/01/19 03:49:12;;;;;;;4.60;3.20;;;1.90;99.90;;;;;;5071646;28;20538;-71
2021/01/19 03:51:39;;;;;;;3.90;2.37;;;2.00;99.90;;;;;;5072105;28;20600;-71
2021/01/19 03:54:06;;;;;;;6.43;3.40;;;2.00;99.90;;;;;;5072329;28;20724;-71
2021/01/19 03:56:33;;;;;;;7.00;3.00;;;1.90;99.90;;;;;;5072098;28;20530;-71
2021/01/19 03:58:59;;;;;;;4.93;3.63;;;2.00;99.90;;;;;;5071884;28;20492;-71
2021/01/19 04:01:25;;;;;;;4.60;2.90;;;2.00;99.90;;;;;;5071376;28;20511;-71
2021/01/19 04:03:52;;;;;;;4.67;2.70;;;2.00;99.90;;;;;;5071972;28;21029;-71
2021/01/19 04:06:18;;;;;;;3.40;2.37;;;2.00;99.90;;;;;;5072032;28;20457;-71
2021/01/19 04:08:44;;;;;;;4.03;2.70;;;2.00;99.90;;;;;;5071820;28;20533;-71
2021/01/19 04:11:12;;;;;;;7.30;2.53;;;2.00;99.90;;;;;;5071283;28;20981;-71
2021/01/19 04:13:38;;;;;;;6.73;3.27;;;2.10;99.90;;;;;;5071792;28;20519;-71
2021/01/19 04:16:05;;;;;;;7.40;3.00;;;1.90;99.90;;;;;;5071554;28;20458;-71
2021/01/19 04:18:31;;;;;;;4.57;2.57;;;1.80;99.90;;;;;;5071837;28;20445;-71
2021/01/19 04:20:58;;;;;;;3.10;2.53;;;1.70;99.90;;;;;;5070801;28;20884;-71
2021/01/19 04:23:24;;;;;;;5.17;2.97;;;1.60;99.90;;;;;;5071700;28;20487;-71
2021/01/19 04:25:51;;;;;;;3.30;2.30;;;1.60;99.90;;;;;;5071708;28;20538;-71
2021/01/19 04:28:18;;;;;;;4.13;3.00;;;1.60;99.90;;;;;;5071514;28;20818;-71
2021/01/19 04:30:47;;;;;;;7.03;2.77;;;1.60;99.90;;;;;;5070847;28;20609;-71
2021/01/19 04:33:14;;;;;;;8.20;2.53;;;1.60;99.90;;;;;;5071252;28;20464;-71
2021/01/19 04:35:40;;;;;;;3.83;2.50;;;1.60;99.90;;;;;;5070332;28;20443;-71
2021/01/19 04:38:06;;;;;;;3.90;2.60;;;1.60;99.90;;;;;;5070766;28;20448;-71
2021/01/19 04:40:33;;;;;;;4.50;2.97;;;1.60;99.90;;;;;;5070669;28;21009;-71
2021/01/19 04:42:59;;;;;;;3.20;2.30;;;1.60;99.90;;;;;;5070538;28;20520;-71
2021/01/19 04:45:27;;;;;;;4.57;2.40;;;1.50;99.90;;;;;;5070950;28;20538;-71
2021/01/19 04:47:54;;;;;;;5.90;2.50;;;1.50;99.90;;;;;;5071478;28;20455;-71
2021/01/19 04:50:20;;;;;;;4.63;2.43;;;1.60;99.90;;;;;;5070744;28;20499;-71
2021/01/19 04:52:47;;;;;;;3.30;2.40;;;1.60;99.90;;;;;;5071135;28;20463;-71
2021/01/19 04:55:18;;;;;;;3.00;2.13;;;1.60;99.90;;;;;;5071136;28;20435;-71
2021/01/19 04:57:46;;;;;;;4.27;2.63;;;1.70;99.90;;;;;;5071040;28;20451;-71
2021/01/19 05:00:15;;;;;;;3.00;2.57;;;1.70;99.90;;;;;;5070617;28;20857;-71
2021/01/19 05:03:15;;;;;;;3.53;2.20;;;1.70;99.90;;;;;;5070987;28;20479;-71
2021/01/19 05:06:12;;;;;;;3.20;2.30;;;1.70;99.90;;;;;;5070928;28;20607;-71
2021/01/19 05:09:07;;;;;;;3.27;2.53;;;1.80;99.90;;;;;;5071080;28;20814;-71
2021/01/19 05:11:46;;;;;;;4.80;3.03;;;1.80;99.90;;;;;;5070562;28;20463;-71
2021/01/19 05:14:18;;;;;;;4.40;2.33;;;1.70;99.90;;;;;;5070754;28;20455;-71
2021/01/19 05:16:45;;;;;;;4.10;2.63;;;1.70;99.90;;;;;;5070370;28;20454;-71
2021/01/19 05:19:12;;;;;;;3.33;2.27;;;1.70;99.90;;;;;;5070027;28;20439;-71
2021/01/19 05:21:39;;;;;;;2.80;2.17;;;1.60;99.90;;;;;;5070568;28;20924;-71
2021/01/19 05:24:06;;;;;;;5.47;2.80;;;1.60;99.90;;;;;;5070672;28;20538;-71
2021/01/19 05:26:34;;;;;;;3.80;2.10;;;1.60;99.90;;;;;;5070288;28;20956;-71
2021/01/19 05:29:03;;;;;;;3.73;2.50;;;1.50;99.90;;;;;;5070302;28;20941;-71
2021/01/19 05:31:31;;;;;;;5.50;2.80;;;1.50;99.90;;;;;;5070415;28;20478;-71
2021/01/19 05:34:03;;;;;;;9.73;3.00;;;1.50;99.90;;;;;;5070583;28;20468;-71
2021/01/19 05:36:40;;;;;;;5.07;2.80;;;1.50;99.90;;;;;;5070218;28;20941;-71
2021/01/19 05:39:08;;;;;;;5.60;2.57;;;1.50;99.90;;;;;;5069641;28;20534;-71
2021/01/19 05:41:37;;;;;;;4.50;3.57;;;1.50;99.90;;;;;;5069888;28;20474;-71
2021/01/19 05:44:22;;;;;;;6.37;3.03;;;1.50;99.90;;;;;;5070261;28;20443;-71
2021/01/19 05:46:59;;;;;;;7.83;3.40;;;1.50;99.90;;;;;;5070079;28;20453;-71
2021/01/19 05:49:27;;;;;;;6.80;3.27;;;1.50;99.90;;;;;;5069328;28;20454;-71
2021/01/19 05:51:59;;;;;;;5.30;2.70;;;1.50;99.90;;;;;;5069741;28;20499;-71
2021/01/19 05:54:30;;;;;;;3.73;3.13;;;1.50;99.90;;;;;;5069663;28;20447;-71
2021/01/19 05:57:02;;;;;;;4.57;2.70;;;1.50;99.90;;;;;;5069372;28;20530;-71
2021/01/19 05:59:31;;;;;;;3.97;2.60;;;1.50;99.90;;;;;;5069146;28;21028;-71
2021/01/19 06:01:59;;;;;;;6.43;3.07;;;1.50;99.90;;;;;;5069644;28;21066;-71
2021/01/19 06:04:36;;;;;;;7.63;3.27;;;1.40;99.90;;;;;;5069790;28;20958;-71
2021/01/19 06:07:04;;;;;;;4.10;2.90;;;1.40;99.90;;;;;;5070592;28;20455;-71
2021/01/19 06:09:31;;;;;;;3.50;2.67;;;1.50;99.90;;;;;;5109858;28;21053;-71
2021/01/19 06:11:58;;;;;;;3.70;3.03;;;1.50;99.90;;;;;;5110322;28;20552;-73
2021/01/19 06:14:26;;;;;;;5.07;3.50;;;1.50;99.90;;;;;;5078183;28;20454;-69
2021/01/19 06:17:03;;;;;;;8.50;3.50;;;1.50;99.90;;;;;;5088214;28;20992;-71
2021/01/19 06:19:31;;;;;;;6.83;2.90;;;1.40;99.90;;;;;;5088324;28;20532;-71
2021/01/19 06:21:57;;;;;;;6.97;3.40;;;1.40;99.90;;;;;;5089585;28;20482;-70
2021/01/19 06:24:43;;;;;;;7.37;3.87;;;1.40;99.90;;;;;;5088677;28;20474;-71
2021/01/19 06:27:11;;;;;;;5.53;3.20;;;1.40;99.90;;;;;;5088431;28;20441;-71
2021/01/19 06:29:38;;;;;;;5.07;3.10;;;1.40;99.90;;;;;;5087907;28;20529;-73
2021/01/19 06:32:07;;;;;;;6.73;3.30;;;1.30;99.90;;;;;;5088668;28;20468;-72
2021/01/19 06:34:37;;;;;;;4.03;2.70;;;1.30;99.90;;;;;;5088419;28;20529;-72
2021/01/19 06:37:04;;;;;;;5.77;3.70;;;1.40;99.90;;;;;;5088508;28;20533;-71
2021/01/19 06:39:37;;;;;;;6.13;3.17;;;1.30;99.90;;;;;;5085875;28;20912;-70
2021/01/19 06:42:15;;;;;;;6.17;3.73;;;1.30;99.90;;;;;;5083907;28;20584;-70
2021/01/19 06:44:55;;;;;;;4.10;2.90;;;1.30;99.90;;;;;;5071926;28;20763;-69
2021/01/19 06:47:22;;;;;;;9.77;3.60;;;1.20;99.90;;;;;;5066870;28;20447;-69
2021/01/19 06:49:50;;;;;;;3.57;2.40;;;1.20;99.90;;;;;;5064408;28;20447;-69
2021/01/19 06:52:17;;;;;;;4.23;2.90;;;1.20;99.90;;;;;;5075351;28;20979;-70
2021/01/19 06:55:12;;;;;;;5.67;2.80;;;1.20;99.90;;;;;;5072920;28;20455;-69
2021/01/19 06:58:02;;;;;;;5.13;2.70;;;1.30;99.90;;;;;;5089391;28;21029;-69
2021/01/19 07:00:39;;;;;;;4.80;3.13;;;1.20;99.90;;;;;;5085319;28;21028;-70
2021/01/19 07:03:18;;;;;;;5.53;3.10;;;1.20;99.90;;;;;;5086944;28;20489;-70
2021/01/19 07:05:53;;;;;;;5.20;2.77;;;1.20;99.90;;;;;;5086827;28;20448;-70
2021/01/19 07:08:48;;;;;;;5.10;3.40;;;1.20;99.90;;;;;;5091632;28;20528;-70
2021/01/19 07:11:37;;;;;;;4.43;2.90;;;1.20;99.90;;;;;;5087602;28;20521;-71
2021/01/19 07:14:11;;;;;;;4.23;2.90;;;1.20;99.90;;;;;;5089289;28;20470;-71
2021/01/19 07:16:51;;;;;;;5.70;3.10;;;1.10;99.90;;;;;;5088617;28;20553;-71
2021/01/19 07:19:23;;;;;;;5.30;2.90;;;1.10;99.90;;;;;;5088123;28;20445;-71
2021/01/19 07:22:03;;;;;;;8.37;3.90;;;1.00;99.90;;;;;;5089325;28;21011;-71
2021/01/19 07:24:38;;;;;;;4.93;2.90;;;1.10;99.90;;;;;;5088974;28;20499;-71
2021/01/19 07:27:07;;;;;;;4.17;2.60;;;1.00;99.90;;;;;;5088617;28;20449;-71
2021/01/19 07:29:34;;;;;;;6.90;3.57;;;1.00;99.90;;;;;;5089311;28;21035;-71
2021/01/19 07:32:10;;;;;;;5.03;3.60;;;1.00;99.90;;;;;;5085039;28;20565;-72
2021/01/19 07:34:38;;;;;;;6.10;3.57;;;1.00;99.90;;;;;;5088985;28;20446;-70
2021/01/19 07:37:04;;;;;;;5.00;3.00;;;1.00;99.90;;;;;;5088664;28;20466;-70
2021/01/19 07:39:32;;;;;;;5.50;3.60;;;1.00;99.90;;;;;;5088983;28;20529;-70
2021/01/19 07:42:13;;;;;;;6.63;3.17;;;1.10;99.90;;;;;;5089050;28;20529;-69
2021/01/19 07:44:42;;;;;;;4.63;3.40;;;1.20;99.90;;;;;;5089475;28;20509;-74
2021/01/19 07:47:10;;;;;;;4.20;2.90;;;1.20;99.90;;;;;;5088939;28;20450;-72
2021/01/19 07:49:37;;;;;;;3.73;2.70;;;1.30;99.90;;;;;;5088626;28;20458;-70
2021/01/19 07:52:12;;;;;;;4.80;3.40;;;1.40;99.90;;;;;;5089437;28;20545;-71
2021/01/19 07:54:38;;;;;;;5.03;3.43;;;1.40;99.90;;;;;;5089144;28;20445;-69
2021/01/19 07:57:13;;;;;;;6.30;3.73;;;1.50;99.90;;;;;;5088151;28;20495;-69
2021/01/19 07:59:40;;;;;;;8.27;3.63;;;1.50;99.90;;;;;;5088616;28;20442;-69
2021/01/19 08:02:07;;;;;;;5.30;3.13;;;1.60;99.90;;;;;;5089617;28;20518;-69
2021/01/19 08:04:35;;;;;;;4.70;3.73;;;1.60;99.90;;;;;;5089180;28;20786;-69
2021/01/19 08:07:16;;;;;;;5.27;3.00;;;1.60;99.90;;;;;;5088978;28;20480;-70
2021/01/19 08:09:43;;;;;;;4.07;2.87;;;1.70;99.90;;;;;;5088425;28;20505;-69
2021/01/19 08:12:11;;;;;;;4.33;3.23;;;1.80;99.90;;;;;;5088669;28;21079;-69
2021/01/19 08:14:41;;;;;;;6.87;3.77;;;1.80;99.90;;;;;;5089095;28;20446;-70
2021/01/19 08:17:08;;;;;;;5.23;3.67;;;2.00;99.90;;;;;;5087377;28;20458;-68
2021/01/19 08:19:40;;;;;;;4.80;3.50;;;2.00;99.90;;;;;;5087483;28;20450;-70
2021/01/19 08:22:07;;;;;;;7.27;3.70;;;2.20;99.90;;;;;;5088595;28;20470;-70
2021/01/19 08:24:34;;;;;;;5.43;3.43;;;2.20;99.90;;;;;;5088540;28;20442;-70
2021/01/19 08:27:01;;;;;;;5.27;3.20;;;2.30;99.90;;;;;;5088521;28;20488;-71
2021/01/19 08:29:28;;;;;;;6.53;3.77;;;2.40;99.90;;;;;;5088608;28;20481;-70
2021/01/19 08:31:57;;;;;;;5.00;4.10;;;2.60;99.90;;;;;;5089054;28;21094;-70
2021/01/19 08:34:26;;;;;;;3.80;3.00;;;2.70;99.90;;;;;;5088928;28;20500;-70
2021/01/19 08:36:54;;;;;;;4.80;3.07;;;2.80;99.90;;;;;;5088516;28;20950;-71
2021/01/19 08:39:21;;;;;;;6.07;3.33;;;2.90;99.90;;;;;;5088110;28;20474;-71
2021/01/19 08:41:49;;;;;;;3.63;3.20;;;3.00;99.90;;;;;;5089059;28;20555;-71
2021/01/19 08:44:16;;;;;;;5.40;3.23;;;3.10;99.90;;;;;;5088941;28;20902;-71
2021/01/19 08:46:44;;;;;;;7.30;3.53;;;3.30;99.90;;;;;;5087894;28;20448;-70
2021/01/19 08:49:12;;;;;;;4.10;3.57;;;3.50;99.90;;;;;;5088397;28;20442;-67
2021/01/19 08:51:43;;;;;;;6.30;3.03;;;3.70;99.90;;;;;;5088176;28;20968;-68
2021/01/19 08:54:10;;;;;;;5.03;3.20;;;3.80;99.90;;;;;;5087985;28;20434;-68
2021/01/19 08:56:39;;;;;;;5.17;3.63;;;3.90;99.90;;;;;;5087724;28;20446;-68
2021/01/19 08:59:05;;;;;;;10.90;4.37;;;4.00;99.90;;;;;;5073871;28;21034;-68
2021/01/19 09:01:32;;;;;;;6.80;3.57;;;4.20;99.90;;;;;;5067104;28;20570;-68
2021/01/19 09:03:59;;;;;;;6.70;3.30;;;4.20;99.90;;;;;;5068480;28;20885;-68
2021/01/19 09:06:28;;;;;;;5.10;3.30;;;4.20;99.90;;;;;;5067502;28;20526;-68
2021/01/19 09:08:59;;;;;;;3.90;2.83;;;4.10;99.90;;;;;;5067365;28;21277;-67
2021/01/19 09:11:28;;;;;;;6.10;3.07;;;4.00;99.90;;;;;;5066705;28;20454;-68
2021/01/19 09:14:07;;;;;;;4.57;3.67;;;3.90;99.90;;;;;;5067565;28;20530;-68
2021/01/19 09:16:34;;;;;;;9.90;4.07;;;3.90;99.90;;;;;;5066398;28;20455;-69
2021/01/19 09:19:02;;;;;;;6.03;3.27;;;3.80;99.90;;;;;;5067117;28;20600;-68
2021/01/19 09:21:30;;;;;;;6.00;3.30;;;3.90;99.90;;;;;;5066822;28;20479;-69
2021/01/19 09:23:57;;;;;;;7.67;3.93;;;3.90;99.90;;;;;;5066748;28;21228;-70
2021/01/19 09:26:23;;;;;;;7.40;3.77;;;4.00;99.90;;;;;;5067966;28;20447;-68
2021/01/19 09:28:50;;;;;;;6.70;3.60;;;3.90;99.90;;;;;;5067838;28;20973;-71
2021/01/19 09:31:18;;;;;;;6.77;4.37;;;4.00;99.90;;;;;;5067344;28;20542;-70
2021/01/19 09:33:46;;;;;;;6.63;3.60;;;4.00;99.90;;;;;;5068102;28;20446;-69
2021/01/19 09:36:13;;;;;;;6.40;4.37;;;3.90;99.90;;;;;;5066406;28;20550;-69
2021/01/19 09:38:42;;;;;;;5.50;3.73;;;3.90;99.90;;;;;;5080247;28;21206;-70
2021/01/19 09:41:13;;;;;;;4.73;3.90;;;3.90;99.90;;;;;;5086106;28;20529;-68
2021/01/19 09:43:40;;;;;;;7.80;4.30;;;3.90;99.90;;;;;;5086968;28;20482;-70
2021/01/19 09:46:07;;;;;;;7.73;4.43;;;3.90;99.90;;;;;;5085507;28;20907;-69
2021/01/19 09:48:36;;;;;;;5.60;3.97;;;3.80;99.90;;;;;;5086707;28;20528;-69
2021/01/19 09:51:04;;;;;;;9.20;3.93;;;3.70;99.90;;;;;;5085771;28;20561;-70
2021/01/19 09:53:33;;;;;;;6.00;3.70;;;3.80;99.90;;;;;;5086163;28;20537;-69
2021/01/19 09:56:01;;;;;;;5.83;4.00;;;3.80;99.90;;;;;;5085752;28;20450;-69
2021/01/19 09:58:28;;;;;;;6.80;4.77;;;3.90;99.90;;;;;;5085384;28;20442;-70
2021/01/19 10:00:56;;;;;;;6.13;3.60;;;3.80;99.90;;;;;;5085729;28;20501;-68
2021/01/19 10:03:26;;;;;;;5.00;3.70;;;3.90;99.90;;;;;;5086988;28;20526;-71
2021/01/19 10:06:00;;;;;;;5.60;4.10;;;3.80;99.90;;;;;;5086716;28;20457;-70
2021/01/19 10:08:27;;;;;;;10.60;5.10;;;3.80;99.90;;;;;;5086200;28;20555;-67
2021/01/19 10:10:54;;;;;;;7.17;4.20;;;3.90;99.90;;;;;;5061797;28;20443;-68
2021/01/19 10:13:27;;;;;;;14.93;4.73;;;4.00;99.90;;;;;;5082969;28;20545;-70
2021/01/19 10:16:04;;;;;;;4.90;4.30;;;4.00;99.90;;;;;;5086118;28;20746;-68
2021/01/19 10:18:31;;;;;;;5.30;4.10;;;4.00;99.90;;;;;;5086444;28;20885;-70
2021/01/19 10:20:57;;;;;;;5.40;4.53;;;4.00;99.90;;;;;;5085632;28;20470;-70
2021/01/19 10:23:28;;;;;;;6.23;4.73;;;4.00;99.90;;;;;;5086179;28;20575;-69
2021/01/19 10:26:05;;;;;;;6.43;4.97;;;4.10;99.90;;;;;;5086031;28;20454;-70
2021/01/19 10:28:39;;;;;;;6.80;4.87;;;4.20;99.90;;;;;;5085785;28;20537;-68
2021/01/19 10:31:16;;;;;;;5.20;4.40;;;4.30;99.90;;;;;;5085016;28;21132;-70
2021/01/19 10:33:57;;;;;;;5.80;4.20;;;4.40;99.90;;;;;;5085782;28;20453;-69
2021/01/19 10:36:25;;;;;;;7.37;4.90;;;4.50;99.90;;;;;;5078992;28;20537;-71
2021/01/19 10:38:52;;;;;;;6.90;4.63;;;4.60;99.90;;;;;;5073788;28;20480;-69
2021/01/19 10:41:26;;;;;;;7.00;5.60;;;4.70;99.90;;;;;;5073424;28;20592;-70
2021/01/19 10:43:55;;;;;;;7.13;4.73;;;4.60;99.90;;;;;;5086231;28;20503;-70
2021/01/19 10:46:23;;;;;;;7.40;4.70;;;4.70;99.90;;;;;;5087669;28;20481;-69
2021/01/19 10:49:03;;;;;;;5.20;4.30;;;4.60;99.90;;;;;;5088715;28;21003;-69
2021/01/19 10:51:30;;;;;;;4.63;4.00;;;4.50;99.90;;;;;;5086860;28;20505;-70
2021/01/19 10:54:08;;;;;;;7.53;4.10;;;4.50;99.90;;;;;;5086462;28;20468;-70
2021/01/19 10:56:35;;;;;;;4.87;3.97;;;4.50;99.90;;;;;;5086769;28;20441;-69
2021/01/19 10:59:03;;;;;;;12.50;3.70;;;4.50;99.90;;;;;;5086293;28;20469;-70
2021/01/19 11:01:31;;;;;;;5.80;4.10;;;4.50;99.90;;;;;;5085885;28;20462;-70
2021/01/19 11:03:57;;;;;;;7.80;4.90;;;4.50;99.90;;;;;;5086554;28;20592;-71
2021/01/19 11:06:30;;;;;;;7.57;5.10;;;4.50;99.90;;;;;;5086351;28;20472;-71
2021/01/19 11:08:57;;;;;;;6.13;4.63;;;4.50;99.90;;;;;;5086280;28;20446;-70
2021/01/19 11:11:23;;;;;;;5.50;4.83;;;4.60;99.90;;;;;;5085782;28;20866;-69
2021/01/19 11:13:49;;;;;;;6.60;4.03;;;4.70;99.90;;;;;;5086712;28;20474;-69
2021/01/19 11:16:17;;;;;;;5.40;3.30;;;4.70;99.90;;;;;;5085485;28;21055;-70
2021/01/19 11:18:43;;;;;;;8.23;4.43;;;4.70;99.90;;;;;;5086153;28;20484;-69
2021/01/19 11:21:11;;;;;;;5.20;4.10;;;4.70;99.90;;;;;;5085103;28;20533;-68
2021/01/19 11:23:38;;;;;;;6.10;4.03;;;4.80;99.90;;;;;;5085411;28;21042;-69
2021/01/19 11:26:05;;;;;;;5.17;4.20;;;4.80;99.90;;;;;;5086321;28;20952;-69
2021/01/19 11:28:31;;;;;;;6.40;4.10;;;4.80;99.90;;;;;;5086446;28;20881;-69
2021/01/19 11:30:57;;;;;;;8.93;4.40;;;5.00;99.90;;;;;;5084431;28;20936;-70
2021/01/19 11:33:25;;;;;;;5.37;3.40;;;5.00;99.90;;;;;;5085963;28;21172;-69
2021/01/19 11:35:51;;;;;;;6.47;4.67;;;5.00;99.90;;;;;;5085885;28;20477;-69
2021/01/19 11:38:17;;;;;;;7.43;3.67;;;5.00;99.90;;;;;;5085943;28;21077;-71
2021/01/19 11:40:44;;;;;;;8.83;4.57;;;5.00;99.90;;;;;;5085326;28;20473;-70
2021/01/19 11:43:10;;;;;;;6.10;3.97;;;5.00;99.90;;;;;;5085462;28;20482;-69
2021/01/19 11:45:37;;;;;;;5.37;4.20;;;5.10;99.90;;;;;;5087845;28;20477;-71
2021/01/19 11:48:03;;;;;;;6.43;4.77;;;5.20;99.90;;;;;;5087834;28;20453;-71
2021/01/19 11:50:31;;;;;;;5.20;4.50;;;5.20;99.90;;;;;;5088496;28;20850;-70
2021/01/19 11:52:58;;;;;;;6.83;4.40;;;5.30;99.90;;;;;;5088682;28;20929;-70
2021/01/19 11:55:24;;;;;;;4.43;3.60;;;5.30;99.90;;;;;;5076424;28;20479;-70
2021/01/19 11:57:51;;;;;;;6.33;3.87;;;5.30;99.90;;;;;;5088658;28;20446;-70
2021/01/19 12:00:18;;;;;;;7.33;4.00;;;5.30;99.90;;;;;;5089565;28;20453;-71
2021/01/19 12:02:45;;;;;;;8.33;3.40;;;5.30;99.90;;;;;;5089971;28;20535;-70
2021/01/19 12:05:12;;;;;;;5.40;4.03;;;5.20;99.90;;;;;;5090052;28;21120;-71
2021/01/19 12:07:40;;;;;;;9.27;5.00;;;5.20;99.90;;;;;;5090201;28;20537;-70
2021/01/19 12:10:08;;;;;;;5.53;3.80;;;5.20;99.90;;;;;;5078644;28;20534;-70
2021/01/19 12:12:36;;;;;;;9.37;5.20;;;5.00;99.90;;;;;;5069868;28;20465;-70
2021/01/19 12:15:03;;;;;;;5.50;3.30;;;5.00;99.90;;;;;;5069354;28;20513;-71
2021/01/19 12:17:30;;;;;;;5.53;3.60;;;5.00;99.90;;;;;;5069658;28;20478;-70
2021/01/19 12:19:56;;;;;;;4.90;3.90;;;4.90;99.90;;;;;;5069288;28;20525;-69
2021/01/19 12:22:23;;;;;;;8.07;4.60;;;4.90;99.90;;;;;;5069667;28;20566;-71
2021/01/19 12:24:50;;;;;;;4.50;3.63;;;4.90;99.90;;;;;;5070103;28;20459;-70
2021/01/19 12:27:16;;;;;;;8.10;4.73;;;4.90;99.90;;;;;;5086099;28;20490;-70
2021/01/19 12:29:43;;;;;;;7.03;4.03;;;5.00;99.90;;;;;;5075694;28;20542;-71
2021/01/19 12:32:11;;;;;;;5.07;3.23;;;5.10;99.90;;;;;;5091339;28;20549;-71
2021/01/19 12:34:38;;;;;;;10.40;3.90;;;5.20;99.90;;;;;;5089692;28;20422;-73
2021/01/19 12:37:05;;;;;;;5.90;3.77;;;5.30;99.90;;;;;;5088454;28;20464;-72
2021/01/19 12:39:32;;;;;;;7.77;4.00;;;5.40;99.90;;;;;;5089265;28;20442;-72
2021/01/19 12:41:59;;;;;;;8.23;3.30;;;5.40;99.90;;;;;;5089720;28;20485;-71
2021/01/19 12:44:26;;;;;;;3.83;2.47;;;5.50;99.90;;;;;;5090312;28;20521;-71
2021/01/19 12:46:57;;;;;;;5.43;3.60;;;5.60;99.90;;;;;;5089040;28;20541;-73
2021/01/19 12:49:23;;;;;;;5.90;3.83;;;5.70;99.90;;;;;;5089573;28;20542;-73
2021/01/19 12:51:50;;;;;;;5.50;4.10;;;5.70;99.90;;;;;;5085889;28;20571;-73
2021/01/19 12:54:16;;;;;;;6.63;3.73;;;5.60;99.90;;;;;;5086205;28;20454;-72
2021/01/19 12:56:43;;;;;;;5.73;3.00;;;5.50;99.90;;;;;;5089810;28;20470;-72
2021/01/19 12:59:10;;;;;;;5.73;3.13;;;5.40;99.90;;;;;;5089334;28;20535;-74
2021/01/19 13:01:37;;;;;;;5.63;3.30;;;5.40;99.90;;;;;;5091007;28;20469;-71
2021/01/19 13:04:04;;;;;;;4.73;3.47;;;5.30;99.90;;;;;;5089531;28;20481;-72
2021/01/19 13:06:30;;;;;;;6.20;3.60;;;5.30;99.90;;;;;;5090351;28;20438;-71
2021/01/19 13:08:57;;;;;;;5.10;3.40;;;5.30;99.90;;;;;;5090762;28;20445;-71
2021/01/19 13:11:23;;;;;;;6.80;3.30;;;5.30;99.90;;;;;;5089249;28;20888;-71